OIZJ 
Jask Airport
Jask, Iran 
ICAOStatus
OIZJOperational
LatitudeLongitude
25° 39' 12" N57° 47' 57" E
25.65360157.799301
Local Time (DST+5)UTC (GMT+4)
04-17-2014 11:02 pm04-17-2014 18:32
Sunrise-SunsetLocalUTC
Begin Civil Twilight05:49 am01:19
Sunrise06:12 am01:42
Sunset07:03 pm14:33
End Civil Twilight07:27 pm14:57

Current Weather

METARObservedFlight Conditions

OIZJ 171800Z 35010KT 6000 SKC 30/18 Q1005

Thu, Apr 17, 2014 @ 18:00 UTC(Z)

(32 Minutes ago)

MVFR

(Marginal Visual Flight Rules)

WindVisibilityCloudsConditions
350° at 10 knots (19 kph)
6000 meters
  • Clear skies
  • No significant weather
TemperaturesReadingsPrecipitation
Current Temp30°C (86°F)
Dewpoint18°C (64°F)
Heat Index31°C (88°F)
Humidity49%
Altimeter29.68"Hg
Sea Level Pressure1005mb
Field Elevation13.12'
None Recorded

Additional weather within a 185.2km radius of OIZJ

Location METAR
OMFJ

159.8km W (248°)

32 minutes ago
VFR VFR    MVFR MVFR    IFR IFR    LIFR LIFR    Unknown Unknown

Previous 24 hour Weather Graphs

  Loading...

CheckWX.com is intended as a tool to help pilots better visualize weather data.   It is not intended as a substitute for an official weather briefing obtained from a Flight Service Station.
CheckWX.com does not meet the FAA requirements for an official pre-flight weather briefing.   Therefore, it's important that pilots still call and obtain an official FSS pre-flight weather briefing.